createdAt,value
2022-09-30T00:00:36.100Z,5.62
2022-09-30T00:01:36.118Z,5.64
2022-09-30T00:02:36.112Z,5.66
2022-09-30T00:03:36.046Z,5.57
2022-09-30T00:04:36.045Z,5.48
2022-09-30T00:05:36.063Z,5.48
2022-09-30T00:06:36.028Z,5.48
2022-09-30T00:07:36.020Z,5.44
2022-09-30T00:08:36.013Z,5.44
2022-09-30T00:09:36.090Z,5.39
2022-09-30T00:10:36.023Z,5.29
2022-09-30T00:11:35.990Z,5.28
2022-09-30T00:12:35.981Z,5.29
2022-09-30T00:13:35.973Z,5.21
2022-09-30T00:14:35.964Z,5.33
2022-09-30T00:15:35.991Z,5.32
2022-09-30T00:16:36.009Z,5.35
2022-09-30T00:17:35.939Z,5.36
2022-09-30T00:18:35.927Z,5.43
2022-09-30T00:19:35.924Z,5.44
2022-09-30T00:20:35.938Z,5.46
2022-09-30T00:21:35.904Z,5.54
2022-09-30T00:22:35.895Z,5.50
2022-09-30T00:23:35.887Z,5.48
2022-09-30T00:24:35.882Z,5.59
2022-09-30T00:25:35.872Z,5.69
2022-09-30T00:26:35.890Z,5.69
2022-09-30T00:27:35.857Z,5.57
2022-09-30T00:28:35.850Z,5.64
2022-09-30T00:29:35.844Z,5.57
2022-09-30T00:30:35.834Z,5.61
2022-09-30T00:31:35.934Z,5.57
2022-09-30T00:32:35.818Z,5.59
2022-09-30T00:33:35.809Z,5.57
2022-09-30T00:34:35.811Z,5.47
2022-09-30T00:35:35.793Z,5.59
2022-09-30T00:36:35.815Z,5.57
2022-09-30T00:37:35.776Z,5.59
2022-09-30T00:38:35.768Z,5.59
2022-09-30T00:39:35.763Z,5.57
2022-09-30T00:40:35.759Z,5.54
2022-09-30T00:41:35.774Z,5.59
2022-09-30T00:42:36.735Z,5.64
2022-09-30T00:43:35.729Z,5.66
2022-09-30T00:44:35.723Z,5.73
2022-09-30T00:45:35.712Z,5.68
2022-09-30T00:46:35.801Z,5.65
2022-09-30T00:47:35.699Z,5.65
2022-09-30T00:48:35.692Z,5.72
2022-09-30T00:49:35.682Z,5.69
2022-09-30T00:50:35.679Z,5.73
2022-09-30T00:51:35.692Z,5.86
2022-09-30T00:52:35.661Z,5.83
2022-09-30T00:53:35.650Z,5.87
2022-09-30T00:54:35.649Z,5.83
2022-09-30T00:55:35.638Z,5.86
2022-09-30T00:56:35.656Z,5.90
2022-09-30T00:57:35.625Z,5.94
2022-09-30T00:58:35.605Z,5.98
2022-09-30T00:59:35.600Z,6.04
2022-09-30T01:00:35.720Z,5.99
2022-09-30T01:01:35.662Z,6.01
2022-09-30T01:02:35.576Z,5.97
2022-09-30T01:03:35.594Z,5.98
2022-09-30T01:04:35.563Z,6.07
2022-09-30T01:05:35.556Z,5.97
2022-09-30T01:06:35.570Z,6.05
2022-09-30T01:07:35.536Z,6.07
2022-09-30T01:08:35.526Z,6.12
2022-09-30T01:09:35.638Z,6.01
2022-09-30T01:10:35.514Z,6.01
2022-09-30T01:11:35.529Z,5.98
2022-09-30T01:12:35.494Z,5.97
2022-09-30T01:13:35.490Z,5.99
2022-09-30T01:14:35.478Z,5.94
2022-09-30T01:15:35.470Z,5.89
2022-09-30T01:16:35.504Z,5.99
2022-09-30T01:17:35.460Z,5.99
2022-09-30T01:18:35.442Z,6.07
2022-09-30T01:19:35.435Z,6.01
2022-09-30T01:20:35.436Z,6.01
2022-09-30T01:21:35.450Z,6.04
2022-09-30T01:22:39.975Z,5.94
2022-09-30T01:23:37.407Z,5.90
2022-09-30T01:24:35.402Z,5.98
2022-09-30T01:25:35.393Z,6.11
2022-09-30T01:26:35.415Z,5.99
2022-09-30T01:27:35.377Z,5.97
2022-09-30T01:28:35.374Z,6.05
2022-09-30T01:29:35.362Z,5.99
2022-09-30T01:30:35.359Z,6.05
2022-09-30T01:31:35.418Z,6.01
2022-09-30T01:32:35.370Z,6.08
2022-09-30T01:33:35.334Z,5.97
2022-09-30T01:34:35.327Z,5.98
2022-09-30T01:35:35.320Z,6.08
2022-09-30T01:36:35.311Z,6.04
2022-09-30T01:37:35.325Z,5.99
2022-09-30T01:38:35.297Z,6.05
2022-09-30T01:39:35.279Z,6.01
2022-09-30T01:40:35.278Z,6.02
2022-09-30T01:41:35.266Z,6.01
2022-09-30T01:42:35.286Z,5.99
2022-09-30T01:43:35.254Z,6.01
2022-09-30T01:44:35.248Z,5.97
2022-09-30T01:45:35.247Z,5.98
2022-09-30T01:46:35.301Z,6.02
2022-09-30T01:47:35.250Z,6.02
2022-09-30T01:48:35.225Z,6.01
2022-09-30T01:49:35.212Z,6.02
2022-09-30T01:50:35.202Z,5.91
2022-09-30T01:51:35.191Z,5.91
2022-09-30T01:52:35.211Z,5.97
2022-09-30T01:53:35.180Z,5.94
2022-09-30T01:54:35.169Z,5.99
2022-09-30T01:55:35.161Z,5.97
2022-09-30T01:56:35.152Z,5.98
2022-09-30T01:57:35.172Z,5.98
2022-09-30T01:58:35.138Z,5.98
2022-09-30T01:59:35.130Z,5.89
2022-09-30T02:00:35.224Z,5.91
2022-09-30T02:01:35.111Z,5.98
2022-09-30T02:02:35.128Z,5.97
2022-09-30T02:03:35.094Z,5.94
2022-09-30T02:04:35.088Z,5.98
2022-09-30T02:05:35.081Z,5.97
2022-09-30T02:06:35.080Z,5.93
2022-09-30T02:07:35.085Z,5.82
2022-09-30T02:08:35.053Z,5.90
2022-09-30T02:09:35.079Z,5.94
2022-09-30T02:10:35.042Z,5.83
2022-09-30T02:11:35.032Z,5.89
2022-09-30T02:12:35.063Z,5.80
2022-09-30T02:13:35.026Z,5.84
2022-09-30T02:14:35.011Z,5.76
2022-09-30T02:15:39.705Z,5.69
2022-09-30T02:16:37.066Z,5.66
2022-09-30T02:17:35.006Z,5.66
2022-09-30T02:18:34.976Z,5.73
2022-09-30T02:19:34.971Z,5.76
2022-09-30T02:20:34.962Z,5.79
2022-09-30T02:21:34.955Z,5.72
2022-09-30T02:22:34.974Z,5.79
2022-09-30T02:23:34.940Z,5.66
2022-09-30T02:24:34.932Z,5.69
2022-09-30T02:25:34.923Z,5.61
2022-09-30T02:26:34.915Z,5.48
2022-09-30T02:27:34.948Z,5.64
2022-09-30T02:28:34.897Z,5.53
2022-09-30T02:29:34.896Z,5.47
2022-09-30T02:30:34.889Z,5.59
2022-09-30T02:31:34.927Z,5.62
2022-09-30T02:32:34.958Z,5.54
2022-09-30T02:33:34.863Z,5.47
2022-09-30T02:34:34.850Z,5.53
2022-09-30T02:35:34.848Z,5.43
2022-09-30T02:36:34.831Z,5.33
2022-09-30T02:37:34.951Z,5.41
2022-09-30T02:38:34.818Z,5.43
2022-09-30T02:39:34.809Z,5.41
2022-09-30T02:40:34.798Z,5.33
2022-09-30T02:41:34.792Z,5.32
2022-09-30T02:42:34.808Z,5.32
2022-09-30T02:43:34.770Z,5.48
2022-09-30T02:44:34.755Z,5.39
2022-09-30T02:45:35.757Z,5.47
2022-09-30T02:46:34.819Z,5.43
2022-09-30T02:47:34.958Z,5.41
2022-09-30T02:48:34.744Z,5.39
2022-09-30T02:49:34.729Z,5.38
2022-09-30T02:50:34.725Z,5.39
2022-09-30T02:51:34.714Z,5.35
2022-09-30T02:52:34.738Z,5.35
2022-09-30T02:53:34.696Z,5.39
2022-09-30T02:54:34.694Z,5.38
2022-09-30T02:55:34.681Z,5.41
2022-09-30T02:56:34.676Z,5.48
2022-09-30T02:57:34.668Z,5.36
2022-09-30T02:58:34.678Z,5.39
2022-09-30T02:59:34.670Z,5.23
2022-09-30T03:00:34.680Z,5.29
2022-09-30T03:01:34.671Z,5.30
2022-09-30T03:02:34.626Z,5.32
2022-09-30T03:03:34.644Z,5.29
2022-09-30T03:04:34.609Z,5.28
2022-09-30T03:05:34.599Z,5.25
2022-09-30T03:06:34.595Z,5.36
2022-09-30T03:07:34.591Z,5.26
2022-09-30T03:08:34.609Z,5.33
2022-09-30T03:09:34.674Z,5.39
2022-09-30T03:10:34.565Z,5.39
2022-09-30T03:11:34.549Z,5.43
2022-09-30T03:12:34.546Z,5.36
2022-09-30T03:13:34.567Z,5.50
2022-09-30T03:14:34.541Z,5.53
2022-09-30T03:15:34.519Z,5.48
2022-09-30T03:16:34.531Z,5.61
2022-09-30T03:17:34.509Z,5.48
2022-09-30T03:18:34.523Z,5.66
2022-09-30T03:19:34.491Z,5.66
2022-09-30T03:20:34.485Z,5.68
2022-09-30T03:21:34.477Z,5.66
2022-09-30T03:22:34.469Z,5.75
2022-09-30T03:23:34.485Z,5.69
2022-09-30T03:24:34.453Z,5.71
2022-09-30T03:25:34.442Z,5.64
2022-09-30T03:26:34.433Z,5.75
2022-09-30T03:27:34.434Z,5.76
2022-09-30T03:28:34.445Z,5.79
2022-09-30T03:29:34.405Z,5.72
2022-09-30T03:30:34.406Z,5.82
2022-09-30T03:31:34.442Z,5.75
2022-09-30T03:32:34.385Z,5.84
2022-09-30T03:33:34.403Z,5.76
2022-09-30T03:34:34.376Z,5.84
2022-09-30T03:35:34.371Z,5.82
2022-09-30T03:36:34.350Z,5.72
2022-09-30T03:37:34.347Z,5.76
2022-09-30T03:38:34.364Z,5.66
2022-09-30T03:39:34.328Z,5.71
2022-09-30T03:40:34.320Z,5.61
2022-09-30T03:41:34.313Z,5.62
2022-09-30T03:42:34.301Z,5.61
2022-09-30T03:43:34.325Z,5.68
2022-09-30T03:44:34.288Z,5.64
2022-09-30T03:45:34.284Z,5.66
2022-09-30T03:46:34.315Z,5.53
2022-09-30T03:47:34.261Z,5.64
2022-09-30T03:48:34.286Z,5.48
2022-09-30T03:49:34.242Z,5.56
2022-09-30T03:50:34.232Z,5.56
2022-09-30T03:51:34.225Z,5.54
2022-09-30T03:52:34.222Z,5.62
2022-09-30T03:53:34.240Z,5.56
2022-09-30T03:54:34.215Z,5.61
2022-09-30T03:55:34.200Z,5.57
2022-09-30T03:56:34.191Z,5.59
2022-09-30T03:57:34.181Z,5.64
2022-09-30T03:58:34.201Z,5.66
2022-09-30T03:59:34.176Z,5.61
2022-09-30T04:00:34.242Z,5.64
2022-09-30T04:01:34.200Z,5.54
2022-09-30T04:02:34.141Z,5.57
2022-09-30T04:03:34.156Z,5.68
2022-09-30T04:04:34.129Z,5.59
2022-09-30T04:05:34.121Z,5.50
2022-09-30T04:06:34.122Z,5.56
2022-09-30T04:07:34.108Z,5.69
2022-09-30T04:08:34.134Z,5.64
2022-09-30T04:09:34.117Z,5.66
2022-09-30T04:10:34.082Z,5.69
2022-09-30T04:11:34.072Z,5.76
2022-09-30T04:12:34.071Z,5.72
2022-09-30T04:13:34.088Z,5.69
2022-09-30T04:14:34.055Z,5.71
2022-09-30T04:15:34.052Z,5.64
2022-09-30T04:16:34.079Z,5.59
2022-09-30T04:17:34.032Z,5.56
2022-09-30T04:18:34.053Z,5.62
2022-09-30T04:19:34.012Z,5.56
2022-09-30T04:20:34.024Z,5.57
2022-09-30T04:21:33.997Z,5.54
2022-09-30T04:22:33.994Z,5.61
2022-09-30T04:23:34.002Z,5.53
2022-09-30T04:24:33.971Z,5.57
2022-09-30T04:25:33.966Z,5.61
2022-09-30T04:26:33.957Z,5.59
2022-09-30T04:27:33.989Z,5.61
2022-09-30T04:28:33.947Z,5.65
2022-09-30T04:29:33.939Z,5.59
2022-09-30T04:30:33.946Z,5.68
2022-09-30T04:31:33.965Z,5.56
2022-09-30T04:32:33.941Z,5.64
2022-09-30T04:33:33.902Z,5.59
2022-09-30T04:34:33.905Z,5.57
2022-09-30T04:35:33.896Z,5.47
2022-09-30T04:36:33.884Z,5.50
2022-09-30T04:37:33.902Z,5.48
2022-09-30T04:38:33.866Z,5.56
2022-09-30T04:39:33.860Z,5.47
2022-09-30T04:40:33.846Z,5.47
2022-09-30T04:41:33.843Z,5.47
2022-09-30T04:42:33.835Z,5.46
2022-09-30T04:43:33.856Z,5.44
2022-09-30T04:44:33.815Z,5.46
2022-09-30T04:45:33.865Z,5.41
2022-09-30T04:46:33.807Z,5.35
2022-09-30T04:47:33.790Z,5.30
2022-09-30T04:48:33.813Z,5.28
2022-09-30T04:49:33.773Z,5.28
2022-09-30T04:50:33.773Z,5.23
2022-09-30T04:51:33.754Z,5.17
2022-09-30T04:52:33.743Z,5.26
2022-09-30T04:53:33.774Z,5.20
2022-09-30T04:54:33.737Z,5.23
2022-09-30T04:55:33.727Z,5.12
2022-09-30T04:56:33.718Z,5.05
2022-09-30T04:57:33.833Z,5.05
2022-09-30T04:58:37.046Z,5.05
2022-09-30T04:59:34.692Z,5.00
2022-09-30T05:00:33.738Z,5.08
2022-09-30T05:01:33.687Z,5.04
2022-09-30T05:02:33.682Z,4.96
2022-09-30T05:03:33.694Z,4.94
2022-09-30T05:04:33.659Z,4.90
2022-09-30T05:05:33.655Z,4.92
2022-09-30T05:06:33.641Z,4.89
2022-09-30T05:07:33.641Z,4.94
2022-09-30T05:08:33.650Z,4.90
2022-09-30T05:09:33.652Z,4.87
2022-09-30T05:10:33.619Z,4.87
2022-09-30T05:11:33.612Z,4.86
2022-09-30T05:12:33.595Z,4.89
2022-09-30T05:13:33.615Z,4.96
2022-09-30T05:14:33.581Z,5.10
2022-09-30T05:15:33.577Z,4.99
2022-09-30T05:16:33.666Z,5.04
2022-09-30T05:17:33.564Z,5.04
2022-09-30T05:18:33.575Z,5.02
2022-09-30T05:19:33.535Z,4.96
2022-09-30T05:20:33.526Z,4.94
2022-09-30T05:21:33.528Z,5.07
2022-09-30T05:22:33.524Z,5.00
2022-09-30T05:23:33.539Z,4.99
2022-09-30T05:24:33.501Z,4.99
2022-09-30T05:25:33.489Z,5.05
2022-09-30T05:26:33.493Z,5.12
2022-09-30T05:27:33.472Z,5.14
2022-09-30T05:28:33.494Z,5.12
2022-09-30T05:29:33.463Z,5.11
2022-09-30T05:30:33.447Z,5.23
2022-09-30T05:31:33.483Z,5.11
2022-09-30T05:32:33.431Z,5.15
2022-09-30T05:33:33.459Z,5.20
2022-09-30T05:34:33.418Z,5.28
2022-09-30T05:35:33.407Z,5.15
2022-09-30T05:36:33.402Z,5.14
2022-09-30T05:37:33.399Z,5.15
2022-09-30T05:38:33.429Z,5.18
2022-09-30T05:39:33.380Z,5.28
2022-09-30T05:40:33.375Z,5.25
2022-09-30T05:41:33.369Z,5.12
2022-09-30T05:42:33.362Z,5.15
2022-09-30T05:43:33.375Z,5.20
2022-09-30T05:44:33.349Z,5.21
2022-09-30T05:45:33.333Z,5.28
2022-09-30T05:46:33.413Z,5.20
2022-09-30T05:47:33.316Z,5.18
2022-09-30T05:48:33.346Z,5.23
2022-09-30T05:49:33.304Z,5.26
2022-09-30T05:50:33.297Z,5.20
2022-09-30T05:51:33.352Z,5.28
2022-09-30T05:52:33.287Z,5.26
2022-09-30T05:53:33.297Z,5.29
2022-09-30T05:54:33.265Z,5.30
2022-09-30T05:55:38.366Z,5.32
2022-09-30T05:56:35.245Z,5.26
2022-09-30T05:57:33.244Z,5.28
2022-09-30T05:58:33.266Z,5.30
2022-09-30T05:59:33.229Z,5.26
2022-09-30T06:00:33.219Z,5.25
2022-09-30T06:01:33.231Z,5.28
2022-09-30T06:02:33.295Z,5.26
2022-09-30T06:03:33.225Z,5.35
2022-09-30T06:04:33.184Z,5.30
2022-09-30T06:05:33.182Z,5.41
2022-09-30T06:06:33.174Z,5.28
2022-09-30T06:07:33.170Z,5.36
2022-09-30T06:08:33.187Z,5.41
2022-09-30T06:09:33.193Z,5.39
2022-09-30T06:10:33.143Z,5.47
2022-09-30T06:11:33.128Z,5.51
2022-09-30T06:12:33.123Z,5.53
2022-09-30T06:13:33.120Z,5.43
2022-09-30T06:14:33.131Z,5.53
2022-09-30T06:15:33.093Z,5.46
2022-09-30T06:16:34.155Z,5.56
2022-09-30T06:17:33.085Z,5.50
2022-09-30T06:18:33.074Z,5.50
2022-09-30T06:19:33.094Z,5.57
2022-09-30T06:20:33.054Z,5.53
2022-09-30T06:21:33.054Z,5.57
2022-09-30T06:22:33.041Z,5.53
2022-09-30T06:23:33.049Z,5.69
2022-09-30T06:24:34.048Z,5.65
2022-09-30T06:25:33.022Z,5.72
2022-09-30T06:26:33.009Z,5.64
2022-09-30T06:27:33.003Z,5.71
2022-09-30T06:28:32.998Z,5.66
2022-09-30T06:29:33.018Z,5.73
2022-09-30T06:30:35.263Z,5.73
2022-09-30T06:31:34.011Z,5.71
2022-09-30T06:32:32.962Z,5.73
2022-09-30T06:33:32.958Z,5.75
2022-09-30T06:34:32.973Z,5.72
2022-09-30T06:35:32.942Z,5.75
2022-09-30T06:36:32.935Z,5.89
2022-09-30T06:37:32.925Z,5.89
2022-09-30T06:38:32.922Z,5.83
2022-09-30T06:39:32.934Z,5.73
2022-09-30T06:40:32.898Z,5.80
2022-09-30T06:41:32.892Z,5.82
2022-09-30T06:42:32.872Z,5.93
2022-09-30T06:43:41.527Z,5.91
2022-09-30T06:44:40.673Z,5.98
2022-09-30T06:45:34.065Z,5.98
2022-09-30T06:46:34.026Z,6.02
2022-09-30T06:47:32.897Z,6.04
2022-09-30T06:48:38.315Z,6.05
2022-09-30T06:49:46.340Z,6.07
2022-09-30T06:50:34.821Z,6.11
2022-09-30T06:51:32.817Z,6.08
2022-09-30T06:52:32.810Z,6.05
2022-09-30T06:53:32.831Z,6.11
2022-09-30T06:54:32.825Z,6.12
2022-09-30T06:55:32.795Z,6.30
2022-09-30T06:56:32.783Z,6.24
2022-09-30T06:57:32.773Z,6.30
2022-09-30T06:58:32.767Z,6.16
2022-09-30T06:59:32.787Z,6.33
2022-09-30T07:00:32.768Z,6.28
2022-09-30T07:01:32.742Z,6.26
2022-09-30T07:02:32.755Z,6.38
2022-09-30T07:03:32.716Z,6.48
2022-09-30T07:04:33.750Z,6.42
2022-09-30T07:05:32.714Z,6.48
2022-09-30T07:06:32.706Z,6.64
2022-09-30T07:07:32.702Z,6.59
2022-09-30T07:08:32.693Z,6.69
2022-09-30T07:09:32.743Z,6.67
2022-09-30T07:10:32.671Z,6.59
2022-09-30T07:11:32.672Z,6.64
2022-09-30T07:12:32.669Z,6.63
2022-09-30T07:13:32.648Z,6.67
2022-09-30T07:14:32.658Z,6.67
2022-09-30T07:15:32.727Z,6.79
2022-09-30T07:16:32.645Z,6.77
2022-09-30T07:17:32.627Z,6.85
2022-09-30T07:18:32.612Z,6.77
2022-09-30T07:19:32.624Z,6.72
2022-09-30T07:20:32.594Z,6.74
2022-09-30T07:21:32.588Z,6.74
2022-09-30T07:22:32.577Z,6.93
2022-09-30T07:23:32.565Z,6.96
2022-09-30T07:24:32.582Z,7.00
2022-09-30T07:25:32.555Z,7.03
2022-09-30T07:26:32.542Z,7.07
2022-09-30T07:27:32.539Z,7.00
2022-09-30T07:28:32.536Z,7.07
2022-09-30T07:29:50.148Z,7.14
2022-09-30T07:30:34.521Z,7.13
2022-09-30T07:31:34.675Z,7.13
2022-09-30T07:32:33.541Z,7.03
2022-09-30T07:33:32.507Z,7.00
2022-09-30T07:34:32.517Z,7.00
2022-09-30T07:35:32.479Z,7.07
2022-09-30T07:36:33.737Z,6.99
2022-09-30T07:37:33.467Z,7.02
2022-09-30T07:38:32.485Z,7.10
2022-09-30T07:39:32.476Z,7.17
2022-09-30T07:40:32.450Z,7.29
2022-09-30T07:41:32.434Z,7.25
2022-09-30T07:42:32.423Z,7.23
2022-09-30T07:43:32.419Z,7.29
2022-09-30T07:44:32.435Z,7.35
2022-09-30T07:45:32.484Z,7.31
2022-09-30T07:46:32.397Z,7.43
2022-09-30T07:47:32.385Z,7.47
2022-09-30T07:48:32.377Z,7.43
2022-09-30T07:49:32.547Z,7.58
2022-09-30T07:50:32.364Z,7.61
2022-09-30T07:51:32.358Z,7.48
2022-09-30T07:52:32.345Z,7.45
2022-09-30T07:53:32.333Z,7.43
2022-09-30T07:54:32.354Z,7.53
2022-09-30T07:55:32.329Z,7.57
2022-09-30T07:56:51.205Z,7.61
2022-09-30T07:57:34.312Z,7.69
2022-09-30T07:58:32.298Z,7.70
2022-09-30T07:59:32.334Z,7.63
2022-09-30T08:00:42.710Z,7.79
2022-09-30T08:01:34.334Z,7.94
2022-09-30T08:02:32.322Z,7.93
2022-09-30T08:03:32.262Z,7.98
2022-09-30T08:04:32.287Z,8.09
2022-09-30T08:05:32.245Z,8.16
2022-09-30T08:06:32.243Z,8.34
2022-09-30T08:07:32.237Z,8.36
2022-09-30T08:08:32.228Z,8.38
2022-09-30T08:09:32.293Z,8.58
2022-09-30T08:10:32.257Z,8.49
2022-09-30T08:11:32.205Z,8.66
2022-09-30T08:12:32.194Z,8.61
2022-09-30T08:13:32.187Z,8.76
2022-09-30T08:14:32.214Z,8.79
2022-09-30T08:15:32.177Z,8.94
2022-09-30T08:16:32.200Z,8.97
2022-09-30T08:17:32.153Z,8.99
2022-09-30T08:18:32.152Z,9.02
2022-09-30T08:19:32.577Z,9.10
2022-09-30T08:20:32.131Z,9.16
2022-09-30T08:21:32.122Z,9.23
2022-09-30T08:22:32.118Z,9.40
2022-09-30T08:23:32.118Z,9.37
2022-09-30T08:24:32.235Z,9.59
2022-09-30T08:25:32.092Z,9.65
2022-09-30T08:26:32.081Z,9.79
2022-09-30T08:27:32.093Z,9.80
2022-09-30T08:28:32.071Z,9.92
2022-09-30T08:30:34.047Z,9.91
2022-09-30T08:31:32.068Z,9.89
2022-09-30T08:32:32.036Z,9.86
2022-09-30T08:33:32.031Z,9.87
2022-09-30T08:34:32.048Z,9.87
2022-09-30T08:35:32.016Z,9.87
2022-09-30T08:36:32.000Z,9.91
2022-09-30T08:37:32.003Z,9.99
2022-09-30T08:38:31.987Z,10.15
2022-09-30T08:39:32.011Z,10.13
2022-09-30T08:40:31.967Z,10.28
2022-09-30T08:41:31.963Z,10.54
2022-09-30T08:42:37.199Z,10.51
2022-09-30T08:43:33.951Z,10.48
2022-09-30T08:44:31.961Z,10.37
2022-09-30T08:45:31.996Z,10.28
2022-09-30T08:46:31.983Z,10.49
2022-09-30T08:47:31.917Z,10.57
2022-09-30T08:48:31.904Z,10.63
2022-09-30T08:49:31.920Z,10.92
2022-09-30T08:50:31.890Z,11.04
2022-09-30T08:51:31.883Z,11.08
2022-09-30T08:52:47.905Z,11.08
2022-09-30T08:53:33.870Z,11.10
2022-09-30T08:54:32.976Z,11.08
2022-09-30T08:55:31.859Z,11.19
2022-09-30T08:56:31.843Z,11.14
2022-09-30T08:57:31.838Z,10.94
2022-09-30T08:58:31.822Z,10.90
2022-09-30T08:59:31.843Z,10.93
2022-09-30T09:00:31.806Z,10.87
2022-09-30T09:01:31.885Z,10.84
2022-09-30T09:02:31.851Z,10.89
2022-09-30T09:03:31.785Z,11.08
2022-09-30T09:04:31.867Z,11.00
2022-09-30T09:05:31.768Z,10.99
2022-09-30T09:06:31.765Z,10.96
2022-09-30T09:07:31.752Z,11.11
2022-09-30T09:08:31.747Z,11.27
2022-09-30T09:09:31.764Z,11.30
2022-09-30T09:10:31.727Z,11.54
2022-09-30T09:11:31.727Z,11.52
2022-09-30T09:12:31.717Z,11.54
2022-09-30T09:13:31.713Z,11.55
2022-09-30T09:14:31.742Z,11.50
2022-09-30T09:15:31.702Z,11.80
2022-09-30T09:16:31.733Z,11.90
2022-09-30T09:17:31.680Z,12.00
2022-09-30T09:18:31.677Z,12.22
2022-09-30T09:19:31.684Z,12.36
2022-09-30T09:20:31.653Z,12.45
2022-09-30T09:21:31.647Z,12.57
2022-09-30T09:22:31.663Z,12.65
2022-09-30T09:23:31.634Z,12.86
2022-09-30T09:24:31.654Z,13.04
2022-09-30T09:25:31.614Z,13.25
2022-09-30T09:26:31.611Z,13.28
2022-09-30T09:27:31.783Z,13.11
2022-09-30T09:28:31.671Z,12.75
2022-09-30T09:29:31.630Z,12.64
2022-09-30T09:30:31.587Z,12.94
2022-09-30T09:31:31.618Z,13.39
2022-09-30T09:32:31.560Z,14.23
2022-09-30T09:33:31.554Z,14.79
2022-09-30T09:34:31.548Z,15.44
2022-09-30T09:35:31.561Z,15.76
2022-09-30T09:36:31.532Z,15.82
2022-09-30T09:37:31.524Z,15.79
2022-09-30T09:38:31.519Z,15.79
2022-09-30T09:39:31.508Z,15.88
2022-09-30T09:40:31.529Z,16.05
2022-09-30T09:41:31.489Z,16.41
2022-09-30T09:42:31.525Z,16.09
2022-09-30T09:43:31.484Z,15.84
2022-09-30T09:44:31.470Z,15.70
2022-09-30T09:45:31.556Z,15.86
2022-09-30T09:46:31.470Z,15.98
2022-09-30T09:47:31.437Z,15.97
2022-09-30T09:48:32.457Z,15.82
2022-09-30T09:49:31.430Z,15.91
2022-09-30T09:50:31.449Z,15.80
2022-09-30T09:51:31.411Z,15.72
2022-09-30T09:52:31.408Z,15.68
2022-09-30T09:53:31.401Z,15.57
2022-09-30T09:54:31.395Z,15.39
2022-09-30T09:55:31.409Z,15.33
2022-09-30T09:56:32.651Z,15.33
2022-09-30T09:57:32.458Z,15.28
2022-09-30T09:58:31.362Z,15.17
2022-09-30T09:59:31.352Z,15.15
2022-09-30T10:00:31.383Z,15.09
2022-09-30T10:01:31.434Z,14.89
2022-09-30T10:02:31.354Z,14.63
2022-09-30T10:03:31.322Z,14.48
2022-09-30T10:04:31.313Z,14.45
2022-09-30T10:05:31.335Z,14.51
2022-09-30T10:06:31.298Z,14.58
2022-09-30T10:07:31.289Z,14.53
2022-09-30T10:08:31.282Z,14.44
2022-09-30T10:09:31.276Z,14.55
2022-09-30T10:10:31.259Z,14.44
2022-09-30T10:11:31.279Z,14.32
2022-09-30T10:12:31.250Z,14.29
2022-09-30T10:13:31.256Z,14.40
2022-09-30T10:14:31.237Z,14.35
2022-09-30T10:15:31.225Z,14.37
2022-09-30T10:16:31.241Z,14.36
2022-09-30T10:17:31.204Z,14.41
2022-09-30T10:18:31.201Z,14.47
2022-09-30T10:19:31.189Z,14.43
2022-09-30T10:20:31.184Z,14.51
2022-09-30T10:21:31.203Z,14.54
2022-09-30T10:22:31.166Z,14.50
2022-09-30T10:23:31.160Z,14.59
2022-09-30T10:24:31.153Z,14.65
2022-09-30T10:25:31.711Z,14.73
2022-09-30T10:26:31.164Z,14.69
2022-09-30T10:27:31.125Z,14.84
2022-09-30T10:28:31.209Z,14.82
2022-09-30T10:29:31.766Z,14.89
2022-09-30T10:30:31.106Z,14.84
2022-09-30T10:31:31.212Z,14.89
2022-09-30T10:32:31.084Z,14.82
2022-09-30T10:33:31.080Z,14.88
2022-09-30T10:34:31.138Z,14.88
2022-09-30T10:35:31.062Z,14.86
2022-09-30T10:36:31.069Z,14.86
2022-09-30T10:37:32.045Z,14.96
2022-09-30T10:38:31.090Z,14.94
2022-09-30T10:39:31.037Z,14.94
2022-09-30T10:40:31.021Z,15.04
2022-09-30T10:41:31.036Z,15.24
2022-09-30T10:42:31.009Z,15.24
2022-09-30T10:43:30.997Z,15.44
2022-09-30T10:44:30.986Z,15.57
2022-09-30T10:45:31.009Z,15.37
2022-09-30T10:46:31.062Z,15.44
2022-09-30T10:47:36.382Z,15.51
2022-09-30T10:48:32.959Z,15.57
2022-09-30T10:49:30.943Z,15.64
2022-09-30T10:50:30.943Z,15.58
2022-09-30T10:51:30.955Z,15.65
2022-09-30T10:52:30.926Z,15.64
2022-09-30T10:53:30.912Z,15.59
2022-09-30T10:54:30.906Z,15.73
2022-09-30T10:55:30.896Z,15.73
2022-09-30T10:56:30.916Z,15.92
2022-09-30T10:57:30.878Z,15.91
2022-09-30T10:58:30.871Z,15.95
2022-09-30T10:59:31.512Z,15.98
2022-09-30T11:00:30.861Z,16.08
2022-09-30T11:01:31.256Z,16.08
2022-09-30T11:02:30.854Z,16.20
2022-09-30T11:03:30.921Z,16.20
2022-09-30T11:04:30.824Z,16.10
2022-09-30T11:05:30.828Z,16.21
2022-09-30T11:06:30.809Z,16.33
2022-09-30T11:07:30.828Z,16.42
2022-09-30T11:08:30.789Z,16.56
2022-09-30T11:09:30.785Z,16.47
2022-09-30T11:10:30.795Z,16.43
2022-09-30T11:11:30.769Z,16.50
2022-09-30T11:12:30.787Z,16.51
2022-09-30T11:13:30.754Z,16.47
2022-09-30T11:14:30.748Z,16.53
2022-09-30T11:15:30.749Z,16.54
2022-09-30T11:16:31.301Z,16.49
2022-09-30T11:17:30.743Z,16.49
2022-09-30T11:18:30.714Z,16.53
2022-09-30T11:19:30.707Z,16.64
2022-09-30T11:20:30.697Z,16.58
2022-09-30T11:21:30.688Z,16.57
2022-09-30T11:22:30.710Z,16.61
2022-09-30T11:23:30.675Z,16.69
2022-09-30T11:24:30.678Z,16.72
2022-09-30T11:25:30.658Z,16.60
2022-09-30T11:26:30.704Z,16.65
2022-09-30T11:27:30.665Z,16.74
2022-09-30T11:28:30.633Z,16.56
2022-09-30T11:29:30.633Z,16.71
2022-09-30T11:30:30.617Z,16.56
2022-09-30T11:31:30.642Z,16.64
2022-09-30T11:32:30.622Z,16.69
2022-09-30T11:33:30.595Z,16.72
2022-09-30T11:34:30.585Z,16.94
2022-09-30T11:35:30.576Z,17.02
2022-09-30T11:36:30.688Z,16.97
2022-09-30T11:37:30.587Z,16.87
2022-09-30T11:38:30.553Z,16.74
2022-09-30T11:39:30.546Z,16.81
2022-09-30T11:40:30.536Z,16.78
2022-09-30T11:41:30.523Z,16.75
2022-09-30T11:42:30.544Z,16.61
2022-09-30T11:43:30.507Z,16.72
2022-09-30T11:44:30.504Z,16.74
2022-09-30T11:45:30.524Z,16.84
2022-09-30T11:46:30.601Z,16.93
2022-09-30T11:47:30.509Z,16.97
2022-09-30T11:48:32.832Z,16.97
2022-09-30T11:49:31.458Z,17.02
2022-09-30T11:50:30.454Z,17.24
2022-09-30T11:51:30.445Z,17.30
2022-09-30T11:52:30.462Z,17.36
2022-09-30T11:53:30.428Z,17.27
2022-09-30T11:54:30.421Z,17.42
2022-09-30T11:55:30.416Z,17.38
2022-09-30T11:56:30.826Z,17.31
2022-09-30T11:57:30.420Z,17.31
2022-09-30T11:58:41.557Z,17.42
2022-09-30T11:59:32.390Z,17.29
2022-09-30T12:00:30.359Z,17.38
2022-09-30T12:01:31.363Z,17.41
2022-09-30T12:02:30.435Z,17.39
2022-09-30T12:03:30.383Z,17.41
2022-09-30T12:04:30.340Z,17.39
2022-09-30T12:05:30.331Z,17.45
2022-09-30T12:06:30.725Z,17.46
2022-09-30T12:07:30.345Z,17.44
2022-09-30T12:08:30.309Z,17.51
2022-09-30T12:09:30.299Z,17.52
2022-09-30T12:10:30.291Z,17.52
2022-09-30T12:11:30.292Z,17.41
2022-09-30T12:12:30.303Z,17.46
2022-09-30T12:13:30.270Z,17.63
2022-09-30T12:14:30.259Z,17.60
2022-09-30T12:15:30.248Z,17.56
2022-09-30T12:16:30.591Z,17.59
2022-09-30T12:17:30.282Z,17.44
2022-09-30T12:18:30.230Z,17.49
2022-09-30T12:19:30.221Z,17.46
2022-09-30T12:20:30.240Z,17.39
2022-09-30T12:21:30.204Z,17.41
2022-09-30T12:22:30.224Z,17.39
2022-09-30T12:23:30.186Z,17.45
2022-09-30T12:24:30.178Z,17.48
2022-09-30T12:25:30.173Z,17.52
2022-09-30T12:26:30.526Z,17.54
2022-09-30T12:27:30.182Z,17.59
2022-09-30T12:28:30.210Z,17.56
2022-09-30T12:29:30.142Z,17.63
2022-09-30T12:30:30.136Z,17.67
2022-09-30T12:31:30.162Z,17.71
2022-09-30T12:32:30.138Z,17.82
2022-09-30T12:33:30.106Z,17.90
2022-09-30T12:34:31.093Z,18.10
2022-09-30T12:35:30.092Z,18.16
2022-09-30T12:36:30.453Z,18.23
2022-09-30T12:37:30.099Z,18.18
2022-09-30T12:38:30.065Z,18.23
2022-09-30T12:39:30.054Z,18.23
2022-09-30T12:40:30.047Z,18.19
2022-09-30T12:41:30.042Z,17.98
2022-09-30T12:42:30.057Z,17.68
2022-09-30T12:43:30.025Z,17.60
2022-09-30T12:44:30.022Z,17.42
2022-09-30T12:45:30.087Z,17.02
2022-09-30T12:46:30.291Z,16.89
2022-09-30T12:47:30.019Z,16.65
2022-09-30T12:48:29.984Z,16.64
2022-09-30T12:49:29.975Z,16.71
2022-09-30T12:50:29.965Z,16.53
2022-09-30T12:51:29.964Z,16.58
2022-09-30T12:52:29.984Z,16.54
2022-09-30T12:53:29.944Z,16.36
2022-09-30T12:54:29.934Z,16.35
2022-09-30T12:55:29.929Z,16.32
2022-09-30T12:56:30.180Z,16.16
2022-09-30T12:57:29.909Z,16.32
2022-09-30T12:58:31.188Z,16.33
2022-09-30T12:59:30.896Z,16.29
2022-09-30T13:00:29.885Z,16.31
2022-09-30T13:01:29.944Z,16.29
2022-09-30T13:02:29.928Z,16.26
2022-09-30T13:03:29.891Z,16.24
2022-09-30T13:04:29.853Z,16.24
2022-09-30T13:05:29.848Z,16.24
2022-09-30T13:06:30.160Z,16.24
2022-09-30T13:07:29.832Z,16.32
2022-09-30T13:08:29.852Z,16.39
2022-09-30T13:09:29.815Z,16.38
2022-09-30T13:10:29.812Z,16.57